Time;durP1;ratioP1;P1;durP2;ratioP2;P2;SDS_P1;SDS_P2;PMS_P1;PMS_P2;Temp;Humidity;BMP_temperature;BMP_pressure;BME280_temperature;BME280_humidity;BME280_pressure;Samples;Min_cycle;Max_cycle;Signal;HPM_P1;HPM_P2
2023/03/09 00:00:11;;;;;;;0.35;0.35;;;2.40;99.90;;;;;;6215493;23;20059;-75
2023/03/09 00:02:37;;;;;;;0.50;0.50;;;2.40;99.90;;;;;;6217100;23;20012;-76
2023/03/09 00:05:04;;;;;;;0.40;0.40;;;2.30;99.90;;;;;;6190230;23;20464;-75
2023/03/09 00:07:30;;;;;;;0.38;0.38;;;2.30;99.90;;;;;;6215290;23;20012;-75
2023/03/09 00:09:57;;;;;;;0.45;0.45;;;2.30;99.90;;;;;;6217286;23;20017;-75
2023/03/09 00:12:23;;;;;;;0.40;0.40;;;2.40;99.90;;;;;;6215404;23;20023;-75
2023/03/09 00:14:53;;;;;;;0.40;0.40;;;2.40;99.90;;;;;;6215258;23;20012;-75
2023/03/09 00:17:19;;;;;;;0.40;0.40;;;2.30;99.90;;;;;;6215450;23;20039;-75
2023/03/09 00:19:44;;;;;;;0.50;0.50;;;2.30;99.90;;;;;;6215238;23;20017;-75
2023/03/09 00:22:10;;;;;;;0.40;0.40;;;2.40;99.90;;;;;;6217081;23;20314;-75
2023/03/09 00:24:35;;;;;;;0.43;0.43;;;2.30;99.90;;;;;;6217060;23;20075;-75
2023/03/09 00:27:02;;;;;;;0.35;0.35;;;2.40;99.90;;;;;;6216529;23;20017;-75
2023/03/09 00:29:30;;;;;;;0.50;0.50;;;2.30;99.90;;;;;;6217650;23;20008;-75
2023/03/09 00:31:56;;;;;;;0.50;0.50;;;2.30;99.90;;;;;;6217020;23;20051;-75
2023/03/09 00:34:22;;;;;;;0.50;0.50;;;2.20;99.90;;;;;;6215574;23;20033;-75
2023/03/09 00:36:48;;;;;;;0.43;0.43;;;2.30;99.90;;;;;;6216987;23;20012;-75
2023/03/09 00:39:16;;;;;;;0.40;0.40;;;2.30;99.90;;;;;;6215106;23;20096;-75
2023/03/09 00:41:42;;;;;;;0.40;0.40;;;2.20;99.90;;;;;;6216855;23;20009;-75
2023/03/09 00:44:08;;;;;;;0.38;0.38;;;2.20;99.90;;;;;;6216986;23;20017;-75
2023/03/09 00:46:35;;;;;;;0.40;0.40;;;2.20;99.90;;;;;;6215031;23;20017;-75
2023/03/09 00:49:04;;;;;;;0.40;0.40;;;2.20;99.90;;;;;;6217019;23;20016;-75
2023/03/09 00:51:30;;;;;;;0.40;0.40;;;2.20;99.90;;;;;;6215129;23;20333;-76
2023/03/09 00:53:56;;;;;;;0.38;0.38;;;2.10;99.90;;;;;;6214700;23;20310;-75
2023/03/09 00:56:25;;;;;;;0.35;0.35;;;2.10;99.90;;;;;;6214891;23;20197;-75
2023/03/09 00:58:52;;;;;;;0.43;0.43;;;2.10;99.90;;;;;;6216748;23;20004;-75
2023/03/09 01:01:19;;;;;;;0.50;0.50;;;2.10;99.90;;;;;;6216805;23;20032;-75
2023/03/09 01:03:45;;;;;;;0.60;0.60;;;2.10;99.90;;;;;;6214568;23;20013;-75
2023/03/09 01:06:11;;;;;;;0.40;0.40;;;2.10;99.90;;;;;;6216555;23;20073;-76
2023/03/09 01:08:38;;;;;;;0.40;0.40;;;2.00;99.90;;;;;;6216478;23;20009;-75
2023/03/09 01:11:12;;;;;;;0.38;0.38;;;2.00;99.90;;;;;;6214930;23;20024;-76
2023/03/09 01:13:38;;;;;;;0.50;0.50;;;2.00;99.90;;;;;;6216499;23;20013;-75
2023/03/09 01:16:05;;;;;;;0.43;0.43;;;2.00;99.90;;;;;;6216739;23;20035;-76
2023/03/09 01:18:31;;;;;;;0.40;0.40;;;2.00;99.90;;;;;;6217059;23;20334;-76
2023/03/09 01:20:58;;;;;;;0.40;0.40;;;1.90;99.90;;;;;;6214931;23;20019;-76
2023/03/09 01:23:24;;;;;;;0.50;0.50;;;2.00;99.90;;;;;;6216535;23;20046;-76
2023/03/09 01:25:49;;;;;;;0.40;0.40;;;2.00;99.90;;;;;;6216686;23;20013;-76
2023/03/09 01:28:15;;;;;;;0.40;0.40;;;1.90;99.90;;;;;;6214687;23;20489;-76
2023/03/09 01:30:41;;;;;;;0.43;0.43;;;2.00;99.90;;;;;;6214732;23;20005;-75
2023/03/09 01:33:07;;;;;;;0.40;0.40;;;2.00;99.90;;;;;;6216179;23;20032;-76
2023/03/09 01:35:32;;;;;;;0.40;0.40;;;1.90;99.90;;;;;;6214954;23;20016;-75
2023/03/09 01:37:58;;;;;;;0.50;0.50;;;1.90;99.90;;;;;;6240304;23;20013;-75
2023/03/09 01:40:26;;;;;;;0.50;0.50;;;1.80;99.90;;;;;;6214499;23;20013;-75
2023/03/09 01:43:00;;;;;;;0.40;0.40;;;1.90;99.90;;;;;;6214594;23;20028;-75
2023/03/09 01:45:29;;;;;;;0.40;0.40;;;1.80;99.90;;;;;;6214820;23;20430;-76
2023/03/09 01:47:57;;;;;;;0.40;0.40;;;1.90;99.90;;;;;;6217048;23;20024;-75
2023/03/09 01:50:30;;;;;;;0.40;0.40;;;1.80;99.90;;;;;;6240096;23;20361;-75
2023/03/09 01:53:00;;;;;;;0.50;0.50;;;1.80;99.90;;;;;;6215721;23;20047;-75
2023/03/09 01:55:31;;;;;;;0.40;0.40;;;1.80;99.90;;;;;;6214574;23;20020;-76
2023/03/09 01:58:08;;;;;;;0.50;0.50;;;1.80;99.90;;;;;;6214529;23;20067;-76
2023/03/09 02:00:35;;;;;;;0.47;0.47;;;1.80;99.90;;;;;;6216345;23;20036;-76
2023/03/09 02:03:24;;;;;;;0.50;0.50;;;1.80;99.90;;;;;;6214614;23;20545;-76
2023/03/09 02:06:00;;;;;;;0.40;0.40;;;1.80;99.90;;;;;;6215302;23;20020;-75
2023/03/09 02:08:28;;;;;;;0.50;0.50;;;1.70;99.90;;;;;;6216274;23;20044;-76
2023/03/09 02:11:10;;;;;;;0.45;0.45;;;1.80;99.90;;;;;;6214293;23;20079;-75
2023/03/09 02:13:41;;;;;;;0.60;0.60;;;1.80;99.90;;;;;;6214361;23;20009;-75
2023/03/09 02:16:07;;;;;;;0.40;0.40;;;1.80;99.90;;;;;;6216126;23;20040;-76
2023/03/09 02:18:33;;;;;;;0.40;0.40;;;1.80;99.90;;;;;;6218398;23;20039;-75
2023/03/09 02:21:11;;;;;;;0.45;0.45;;;1.80;99.90;;;;;;6218305;23;20043;-76
2023/03/09 02:23:48;;;;;;;0.50;0.50;;;1.80;99.90;;;;;;6216405;23;20013;-75
2023/03/09 02:26:31;;;;;;;0.47;0.47;;;1.80;99.90;;;;;;6216250;23;20020;-76
2023/03/09 02:28:57;;;;;;;0.40;0.40;;;1.80;99.90;;;;;;6216459;23;20027;-76
2023/03/09 02:31:23;;;;;;;0.40;0.40;;;1.80;99.90;;;;;;6216230;23;20021;-75
2023/03/09 02:33:49;;;;;;;0.47;0.47;;;1.80;99.90;;;;;;6217343;23;20040;-75
2023/03/09 02:36:15;;;;;;;0.50;0.50;;;1.80;99.90;;;;;;6216202;23;20036;-75
2023/03/09 02:38:40;;;;;;;0.50;0.50;;;1.70;99.90;;;;;;6218197;23;20326;-75
2023/03/09 02:41:09;;;;;;;0.50;0.50;;;1.70;99.90;;;;;;6218091;23;20046;-76
2023/03/09 02:43:45;;;;;;;0.40;0.40;;;1.70;99.90;;;;;;6217824;23;20016;-75
2023/03/09 02:46:11;;;;;;;0.47;0.47;;;1.70;99.90;;;;;;6218102;23;20005;-75
2023/03/09 02:48:37;;;;;;;0.50;0.50;;;1.70;99.90;;;;;;6217929;23;20079;-75
2023/03/09 02:51:03;;;;;;;0.40;0.40;;;1.70;99.90;;;;;;6218084;23;20333;-75
2023/03/09 02:53:28;;;;;;;0.50;0.50;;;1.70;99.90;;;;;;6217682;23;20017;-75
2023/03/09 02:55:54;;;;;;;0.40;0.40;;;1.70;99.90;;;;;;6216022;23;20024;-75
2023/03/09 02:58:20;;;;;;;0.40;0.40;;;1.70;99.90;;;;;;6217881;23;20043;-75
2023/03/09 03:00:45;;;;;;;0.40;0.40;;;1.70;99.90;;;;;;6216052;23;20013;-75
2023/03/09 03:03:11;;;;;;;0.47;0.47;;;1.80;99.90;;;;;;6216139;23;20135;-75
2023/03/09 03:05:37;;;;;;;0.38;0.38;;;1.70;99.90;;;;;;6215956;23;20052;-75
2023/03/09 03:08:02;;;;;;;0.40;0.40;;;1.80;99.90;;;;;;6215819;23;20402;-75
2023/03/09 03:10:28;;;;;;;0.47;0.47;;;1.80;99.90;;;;;;6216870;23;20457;-75
2023/03/09 03:12:54;;;;;;;0.40;0.40;;;1.70;99.90;;;;;;6217724;23;20005;-75
2023/03/09 03:15:19;;;;;;;0.40;0.40;;;1.80;99.90;;;;;;6190673;23;20083;-75
2023/03/09 03:17:45;;;;;;;0.40;0.40;;;1.80;99.90;;;;;;6215941;23;20013;-75
2023/03/09 03:20:13;;;;;;;0.40;0.40;;;1.90;99.90;;;;;;6217370;23;20135;-75
2023/03/09 03:22:43;;;;;;;0.47;0.47;;;1.80;99.90;;;;;;6217453;23;20139;-75
2023/03/09 03:25:09;;;;;;;0.30;0.30;;;1.80;99.90;;;;;;6216215;23;20008;-75
2023/03/09 03:27:35;;;;;;;0.30;0.30;;;1.80;99.90;;;;;;6215101;23;20031;-75
2023/03/09 03:30:01;;;;;;;0.40;0.40;;;1.70;99.90;;;;;;6215867;23;20325;-75
2023/03/09 03:32:27;;;;;;;0.60;0.60;;;1.80;99.90;;;;;;6215750;23;20381;-75
2023/03/09 03:34:52;;;;;;;0.40;0.40;;;1.90;99.90;;;;;;6217805;23;20012;-75
2023/03/09 03:37:18;;;;;;;0.60;0.60;;;1.90;99.90;;;;;;6217556;23;20016;-75
2023/03/09 03:39:44;;;;;;;0.40;0.40;;;1.80;99.90;;;;;;6217488;23;20035;-75
2023/03/09 03:42:09;;;;;;;0.40;0.40;;;1.80;99.90;;;;;;6217379;23;20327;-76
2023/03/09 03:44:35;;;;;;;0.40;0.40;;;1.80;99.90;;;;;;6215587;23;20464;-75
2023/03/09 03:47:00;;;;;;;0.40;0.40;;;1.80;99.90;;;;;;6215545;23;20087;-75
2023/03/09 03:49:27;;;;;;;0.50;0.50;;;1.80;99.90;;;;;;6215702;23;20013;-76
2023/03/09 03:51:52;;;;;;;0.90;0.40;;;1.80;99.90;;;;;;6217404;23;20017;-76
2023/03/09 03:54:18;;;;;;;0.50;0.50;;;1.80;99.90;;;;;;6240671;23;20024;-75
2023/03/09 03:56:44;;;;;;;0.30;0.30;;;1.80;99.90;;;;;;6215623;23;20008;-75
2023/03/09 03:59:10;;;;;;;0.40;0.40;;;1.70;99.90;;;;;;6215369;23;20112;-75
2023/03/09 04:01:36;;;;;;;0.60;0.60;;;1.80;99.90;;;;;;6215608;23;20021;-76
2023/03/09 04:04:02;;;;;;;0.50;0.50;;;1.70;99.90;;;;;;6215608;23;20071;-76
2023/03/09 04:06:28;;;;;;;0.57;0.57;;;1.80;99.90;;;;;;6215380;23;20012;-75
2023/03/09 04:08:53;;;;;;;0.45;0.45;;;1.70;99.90;;;;;;6240824;23;20019;-76
2023/03/09 04:11:19;;;;;;;0.40;0.40;;;1.80;99.90;;;;;;6215477;23;20024;-76
2023/03/09 04:13:49;;;;;;;0.40;0.40;;;1.70;99.90;;;;;;6217294;23;20536;-76
2023/03/09 04:16:15;;;;;;;0.40;0.40;;;1.80;99.90;;;;;;6215477;23;20009;-76
2023/03/09 04:18:41;;;;;;;0.40;0.40;;;1.70;99.90;;;;;;6215343;23;20515;-76
2023/03/09 04:21:06;;;;;;;0.40;0.40;;;1.70;99.90;;;;;;6215666;23;20059;-76
2023/03/09 04:23:32;;;;;;;0.40;0.40;;;1.60;99.90;;;;;;6216774;23;20009;-75
2023/03/09 04:26:00;;;;;;;0.45;0.45;;;1.70;99.90;;;;;;6216889;23;20040;-76
2023/03/09 04:28:26;;;;;;;0.40;0.40;;;1.70;99.90;;;;;;6215186;23;20012;-75
2023/03/09 04:30:52;;;;;;;0.40;0.40;;;1.60;99.90;;;;;;6215319;23;20009;-75
2023/03/09 04:33:18;;;;;;;0.50;0.50;;;1.70;99.90;;;;;;6215724;23;20066;-75
2023/03/09 04:35:44;;;;;;;0.40;0.40;;;1.60;99.90;;;;;;6215225;23;20460;-76
2023/03/09 04:38:10;;;;;;;0.43;0.43;;;1.60;99.90;;;;;;6215179;23;20017;-75
2023/03/09 04:40:36;;;;;;;0.45;0.45;;;1.70;99.90;;;;;;6215172;23;20024;-76
2023/03/09 04:43:02;;;;;;;0.45;0.45;;;1.60;99.90;;;;;;6215276;23;20040;-76
2023/03/09 04:45:28;;;;;;;0.43;0.43;;;1.60;99.90;;;;;;6215231;23;20063;-76
2023/03/09 04:47:54;;;;;;;0.40;0.40;;;1.70;99.90;;;;;;6215105;23;20013;-75
2023/03/09 04:50:20;;;;;;;0.40;0.40;;;1.70;99.90;;;;;;6215833;23;20017;-75
2023/03/09 04:52:46;;;;;;;0.50;0.50;;;1.60;99.90;;;;;;6189727;23;20044;-74
2023/03/09 04:55:11;;;;;;;0.40;0.40;;;1.60;99.90;;;;;;6214953;23;20067;-76
2023/03/09 04:57:37;;;;;;;0.40;0.40;;;1.70;99.90;;;;;;6240578;23;20079;-75
2023/03/09 05:00:08;;;;;;;0.45;0.45;;;1.60;99.90;;;;;;6216459;23;20013;-75
2023/03/09 05:02:33;;;;;;;0.50;0.50;;;1.60;99.90;;;;;;6216836;23;20017;-75
2023/03/09 05:04:59;;;;;;;0.40;0.40;;;1.60;99.90;;;;;;6214937;23;20009;-76
2023/03/09 05:07:24;;;;;;;0.40;0.40;;;1.60;99.90;;;;;;6214831;23;20048;-75
2023/03/09 05:09:50;;;;;;;0.50;0.50;;;1.60;99.90;;;;;;6214771;23;20048;-75
2023/03/09 05:12:16;;;;;;;0.40;0.40;;;1.50;99.90;;;;;;6214738;23;20063;-76
2023/03/09 05:14:41;;;;;;;0.50;0.50;;;1.60;99.90;;;;;;6214704;23;20009;-75
2023/03/09 05:17:07;;;;;;;0.40;0.40;;;1.60;99.90;;;;;;6216663;23;20330;-75
2023/03/09 05:19:36;;;;;;;0.50;0.50;;;1.60;99.90;;;;;;6216974;23;20016;-75
2023/03/09 05:22:02;;;;;;;0.40;0.40;;;1.60;99.90;;;;;;6214667;23;20016;-75
2023/03/09 05:24:28;;;;;;;0.50;0.50;;;1.60;99.90;;;;;;6216170;23;20042;-76
2023/03/09 05:26:54;;;;;;;0.50;0.50;;;1.60;99.90;;;;;;6189526;23;20024;-76
2023/03/09 05:29:20;;;;;;;0.50;0.50;;;1.60;99.90;;;;;;6214523;23;20008;-76
2023/03/09 05:31:45;;;;;;;0.50;0.50;;;1.70;99.90;;;;;;6214581;23;20138;-76
2023/03/09 05:34:11;;;;;;;0.57;0.57;;;1.60;99.90;;;;;;6214784;23;20019;-76
2023/03/09 05:36:37;;;;;;;0.50;0.50;;;1.60;99.90;;;;;;6189404;23;20028;-77
2023/03/09 05:39:03;;;;;;;0.40;0.40;;;1.60;99.90;;;;;;6215924;23;20017;-73
2023/03/09 05:41:28;;;;;;;0.60;0.60;;;1.60;99.90;;;;;;6216029;23;20020;-76
2023/03/09 05:43:54;;;;;;;0.40;0.40;;;1.50;99.90;;;;;;6214467;23;20012;-75
2023/03/09 05:46:20;;;;;;;0.40;0.40;;;1.60;99.90;;;;;;6214397;23;20013;-75
2023/03/09 05:48:47;;;;;;;0.40;0.40;;;1.60;99.90;;;;;;6189575;23;20338;-75
2023/03/09 05:51:13;;;;;;;0.50;0.50;;;1.60;99.90;;;;;;6214817;23;20012;-86
2023/03/09 05:53:39;;;;;;;0.47;0.47;;;1.50;99.90;;;;;;6214316;23;20050;-85
2023/03/09 05:56:06;;;;;;;0.50;0.50;;;1.40;99.90;;;;;;6240252;23;20048;-84
2023/03/09 05:58:32;;;;;;;0.60;0.60;;;1.50;99.90;;;;;;6214673;23;20374;-79
2023/03/09 06:00:58;;;;;;;0.50;0.50;;;1.40;99.90;;;;;;6189449;23;20004;-80
2023/03/09 06:03:25;;;;;;;0.50;0.50;;;1.50;99.90;;;;;;6215097;23;20454;-80
2023/03/09 06:06:02;;;;;;;0.50;0.50;;;1.50;99.90;;;;;;6240087;23;20047;-78
2023/03/09 06:08:28;;;;;;;0.40;0.40;;;1.50;99.90;;;;;;6216861;23;20326;-88
2023/03/09 06:10:57;;;;;;;0.50;0.50;;;1.50;99.90;;;;;;6216550;23;20017;-88
2023/03/09 06:13:22;;;;;;;0.60;0.60;;;1.50;99.90;;;;;;6218281;23;20013;-84
2023/03/09 06:15:48;;;;;;;0.52;0.52;;;1.50;99.90;;;;;;6216615;23;20020;-88
2023/03/09 06:18:14;;;;;;;0.50;0.50;;;1.40;99.90;;;;;;6215769;23;20008;-87
2023/03/09 06:20:39;;;;;;;0.60;0.60;;;1.40;99.90;;;;;;6216737;23;20032;-84
2023/03/09 06:23:07;;;;;;;0.50;0.50;;;1.40;99.90;;;;;;6214399;23;20502;-75
2023/03/09 06:25:33;;;;;;;0.50;0.50;;;1.40;99.90;;;;;;6214299;23;20017;-76
2023/03/09 06:27:58;;;;;;;0.55;0.55;;;1.40;99.90;;;;;;6189530;23;20013;-74
2023/03/09 06:30:26;;;;;;;0.50;0.50;;;1.40;99.90;;;;;;6215722;23;20377;-74
2023/03/09 06:32:53;;;;;;;0.47;0.47;;;1.30;99.90;;;;;;6214221;23;20366;-75
2023/03/09 06:35:18;;;;;;;0.50;0.50;;;1.40;99.90;;;;;;6214338;23;20063;-75
2023/03/09 06:37:45;;;;;;;0.43;0.43;;;1.40;99.90;;;;;;6214177;23;20449;-75
2023/03/09 06:40:12;;;;;;;0.50;0.50;;;1.40;99.90;;;;;;6214617;23;20039;-75
2023/03/09 06:42:39;;;;;;;0.60;0.60;;;1.40;99.90;;;;;;6215452;23;20021;-75
2023/03/09 06:45:05;;;;;;;0.50;0.50;;;1.40;99.90;;;;;;6216026;23;20013;-75
2023/03/09 06:47:31;;;;;;;0.60;0.60;;;1.40;99.90;;;;;;6215601;23;20117;-75
2023/03/09 06:49:56;;;;;;;0.40;0.40;;;1.40;99.90;;;;;;6214259;23;20457;-74
2023/03/09 06:52:22;;;;;;;0.50;0.50;;;1.40;99.90;;;;;;6214158;23;20445;-75
2023/03/09 06:54:48;;;;;;;0.47;0.47;;;1.30;99.90;;;;;;6215611;23;20024;-74
2023/03/09 06:57:14;;;;;;;0.60;0.60;;;1.40;99.90;;;;;;6214221;23;20016;-75
2023/03/09 06:59:39;;;;;;;0.50;0.50;;;1.50;99.90;;;;;;6214603;23;20014;-75
2023/03/09 07:02:05;;;;;;;0.60;0.60;;;1.40;99.90;;;;;;6215748;23;20013;-75
2023/03/09 07:04:31;;;;;;;0.60;0.60;;;1.40;99.90;;;;;;6218159;23;20039;-75
2023/03/09 07:06:57;;;;;;;0.52;0.52;;;1.40;99.90;;;;;;6215987;23;20377;-76
2023/03/09 07:09:22;;;;;;;0.52;0.52;;;1.40;99.90;;;;;;6217838;23;20091;-75
2023/03/09 07:11:48;;;;;;;0.40;0.40;;;1.40;99.90;;;;;;6217942;23;20008;-74
2023/03/09 07:14:14;;;;;;;0.50;0.50;;;1.50;99.90;;;;;;6217609;23;20004;-74
2023/03/09 07:16:40;;;;;;;0.52;0.52;;;1.60;99.90;;;;;;6217805;23;20071;-74
2023/03/09 07:19:05;;;;;;;0.50;0.50;;;1.60;99.90;;;;;;6215936;23;20408;-74
2023/03/09 07:21:31;;;;;;;0.60;0.60;;;1.60;99.90;;;;;;6217457;23;20009;-74
2023/03/09 07:23:56;;;;;;;0.57;0.57;;;1.60;99.90;;;;;;6217707;23;20076;-74
2023/03/09 07:26:22;;;;;;;0.50;0.50;;;1.70;99.90;;;;;;6217282;23;20315;-74
2023/03/09 07:28:48;;;;;;;0.47;0.47;;;1.70;99.90;;;;;;6218420;23;20016;-74
2023/03/09 07:31:14;;;;;;;0.50;0.50;;;1.80;99.90;;;;;;6217460;23;20472;-74
2023/03/09 07:33:40;;;;;;;0.55;0.55;;;1.80;99.90;;;;;;6217945;23;20146;-74
2023/03/09 07:36:07;;;;;;;0.50;0.50;;;1.80;99.90;;;;;;6217759;23;20044;-74
2023/03/09 07:38:33;;;;;;;0.43;0.43;;;1.80;99.90;;;;;;6217649;23;20013;-74
2023/03/09 07:41:00;;;;;;;0.43;0.43;;;1.80;99.90;;;;;;6217609;23;20047;-74
2023/03/09 07:43:26;;;;;;;0.40;0.40;;;1.90;99.90;;;;;;6215676;23;20016;-74
2023/03/09 07:45:52;;;;;;;0.40;0.40;;;2.00;99.90;;;;;;6217625;23;20031;-74
2023/03/09 07:48:18;;;;;;;0.50;0.50;;;1.90;99.90;;;;;;6217433;23;20465;-74
2023/03/09 07:50:43;;;;;;;0.50;0.50;;;1.90;99.90;;;;;;6217265;23;20012;-74
2023/03/09 07:53:09;;;;;;;0.50;0.50;;;2.00;99.90;;;;;;6217285;23;20071;-74
2023/03/09 07:55:36;;;;;;;0.50;0.50;;;1.90;99.90;;;;;;6217573;23;20074;-74
2023/03/09 07:58:03;;;;;;;0.47;0.47;;;1.90;99.90;;;;;;6217208;23;20461;-74
2023/03/09 08:00:29;;;;;;;0.40;0.40;;;1.90;99.90;;;;;;6217569;23;20023;-74
2023/03/09 08:02:56;;;;;;;0.40;0.40;;;2.00;99.90;;;;;;6215622;23;20023;-74
2023/03/09 08:05:22;;;;;;;0.50;0.50;;;2.00;99.90;;;;;;6217621;23;20013;-74
2023/03/09 08:07:49;;;;;;;0.40;0.40;;;2.20;99.90;;;;;;6215580;23;20017;-74
2023/03/09 08:10:16;;;;;;;0.47;0.47;;;2.20;99.90;;;;;;6190598;23;20094;-74
2023/03/09 08:12:46;;;;;;;0.50;0.50;;;2.30;99.90;;;;;;6190107;23;20063;-74
2023/03/09 08:15:11;;;;;;;0.50;0.50;;;2.30;99.90;;;;;;6215430;23;20008;-74
2023/03/09 08:17:37;;;;;;;0.50;0.50;;;2.30;99.90;;;;;;6215300;23;20030;-74
2023/03/09 08:20:11;;;;;;;0.50;0.50;;;2.30;99.90;;;;;;6217247;23;20446;-72
2023/03/09 08:22:37;;;;;;;0.50;0.50;;;2.30;99.90;;;;;;6217155;23;20017;-73
2023/03/09 08:25:04;;;;;;;0.50;0.50;;;2.40;99.90;;;;;;6241034;23;20066;-75
2023/03/09 08:27:30;;;;;;;0.50;0.50;;;2.50;99.90;;;;;;6216018;23;20013;-74
2023/03/09 08:29:56;;;;;;;0.50;0.50;;;2.50;99.90;;;;;;6215654;23;20008;-74
2023/03/09 08:32:23;;;;;;;0.40;0.40;;;2.50;99.90;;;;;;6217077;23;20039;-75
2023/03/09 08:34:53;;;;;;;0.45;0.45;;;2.50;99.90;;;;;;6190344;23;20067;-75
2023/03/09 08:37:19;;;;;;;0.47;0.47;;;2.50;99.90;;;;;;6215195;23;20013;-75
2023/03/09 08:39:44;;;;;;;0.50;0.50;;;2.40;99.90;;;;;;6216680;23;20549;-75
2023/03/09 08:42:10;;;;;;;0.50;0.50;;;2.60;99.90;;;;;;6215065;23;20150;-75
2023/03/09 08:44:36;;;;;;;0.45;0.45;;;2.50;99.90;;;;;;6215078;23;20457;-74
2023/03/09 08:47:02;;;;;;;0.50;0.50;;;2.60;99.90;;;;;;6216491;23;20013;-75
2023/03/09 08:49:28;;;;;;;0.50;0.50;;;2.50;99.90;;;;;;6215193;23;20009;-75
2023/03/09 08:51:53;;;;;;;0.40;0.40;;;2.70;99.90;;;;;;6189972;23;20079;-74
2023/03/09 08:54:19;;;;;;;0.50;0.50;;;2.70;99.90;;;;;;6216200;23;20111;-75
2023/03/09 08:56:44;;;;;;;0.60;0.60;;;2.70;99.90;;;;;;6214898;23;20445;-75
2023/03/09 08:59:10;;;;;;;0.40;0.40;;;2.70;99.90;;;;;;6214995;23;20054;-74
2023/03/09 09:01:36;;;;;;;0.40;0.40;;;2.80;99.90;;;;;;6214949;23;20021;-74
2023/03/09 09:04:01;;;;;;;0.50;0.50;;;2.90;99.90;;;;;;6214990;23;20079;-75
2023/03/09 09:06:28;;;;;;;0.50;0.50;;;2.90;99.90;;;;;;6214765;23;20005;-74
2023/03/09 09:08:54;;;;;;;0.40;0.40;;;2.90;99.90;;;;;;6189698;23;20042;-75
2023/03/09 09:11:19;;;;;;;0.45;0.45;;;3.00;99.90;;;;;;6214780;23;20012;-75
2023/03/09 09:13:45;;;;;;;0.40;0.40;;;3.00;99.90;;;;;;6214786;23;20011;-75
2023/03/09 09:16:12;;;;;;;0.50;0.50;;;2.90;99.90;;;;;;6216660;23;20017;-75
2023/03/09 09:18:38;;;;;;;0.45;0.45;;;3.00;99.90;;;;;;6214926;23;20017;-75
2023/03/09 09:21:08;;;;;;;0.40;0.40;;;2.90;99.90;;;;;;6214618;23;20012;-75
2023/03/09 09:23:41;;;;;;;0.57;0.57;;;3.10;99.90;;;;;;6189456;23;20059;-75
2023/03/09 09:26:07;;;;;;;0.40;0.40;;;3.10;99.90;;;;;;6216272;23;20016;-74
2023/03/09 09:28:33;;;;;;;0.50;0.50;;;3.00;99.90;;;;;;6214509;23;20070;-74
2023/03/09 09:31:01;;;;;;;0.40;0.40;;;3.10;99.90;;;;;;6189570;23;20340;-74
2023/03/09 09:33:28;;;;;;;0.50;0.50;;;3.10;99.90;;;;;;6215023;23;20009;-75
2023/03/09 09:35:59;;;;;;;0.52;0.52;;;3.10;99.90;;;;;;6189699;23;20017;-74
2023/03/09 09:38:25;;;;;;;0.50;0.50;;;3.10;99.90;;;;;;6214576;23;20092;-74
2023/03/09 09:40:55;;;;;;;0.47;0.47;;;3.10;99.90;;;;;;6214579;23;20044;-74
2023/03/09 09:43:23;;;;;;;0.40;0.40;;;3.10;99.90;;;;;;6214666;23;20103;-75
2023/03/09 09:45:51;;;;;;;0.60;0.60;;;3.10;99.90;;;;;;6214638;23;20013;-75
2023/03/09 09:48:18;;;;;;;0.40;0.40;;;3.20;99.90;;;;;;6214403;23;20058;-74
2023/03/09 09:51:06;;;;;;;0.50;0.50;;;3.10;99.90;;;;;;6214546;23;20103;-74
2023/03/09 09:54:11;;;;;;;0.60;0.60;;;3.10;99.90;;;;;;6214287;23;20027;-75
2023/03/09 09:57:11;;;;;;;0.50;0.50;;;3.10;99.90;;;;;;6240118;23;20088;-77
2023/03/09 09:59:48;;;;;;;0.50;0.50;;;3.10;99.90;;;;;;6196240;23;20016;-75
2023/03/09 10:02:39;;;;;;;0.40;0.40;;;3.20;99.90;;;;;;6216400;23;20016;-74
2023/03/09 10:05:19;;;;;;;0.50;0.50;;;3.30;99.90;;;;;;6214516;23;20020;-74
2023/03/09 10:07:45;;;;;;;0.40;0.40;;;3.30;99.90;;;;;;6189326;23;20032;-75
2023/03/09 10:10:21;;;;;;;0.47;0.47;;;3.30;99.90;;;;;;6214878;23;20142;-75
2023/03/09 10:12:47;;;;;;;0.50;0.50;;;3.30;99.90;;;;;;6214845;23;20062;-75
2023/03/09 10:15:23;;;;;;;0.60;0.60;;;3.40;99.90;;;;;;6214454;23;20013;-75
2023/03/09 10:18:10;;;;;;;0.50;0.50;;;3.40;99.90;;;;;;6216342;23;20013;-75
2023/03/09 10:20:40;;;;;;;0.43;0.43;;;3.50;99.90;;;;;;6216013;23;20016;-76
2023/03/09 10:23:24;;;;;;;0.50;0.50;;;3.60;99.90;;;;;;6215831;23;20009;-75
2023/03/09 10:25:57;;;;;;;0.43;0.43;;;3.70;99.90;;;;;;6216359;23;20087;-75
2023/03/09 10:28:30;;;;;;;0.40;0.40;;;3.70;99.90;;;;;;6214323;23;20275;-75
2023/03/09 10:31:01;;;;;;;0.50;0.50;;;3.80;99.90;;;;;;6216209;23;20013;-75
2023/03/09 10:33:36;;;;;;;0.30;0.30;;;3.80;99.90;;;;;;6216136;23;20020;-75
2023/03/09 10:36:06;;;;;;;0.52;0.52;;;3.80;99.90;;;;;;6215149;23;20112;-75
2023/03/09 10:38:33;;;;;;;0.50;0.50;;;3.90;99.90;;;;;;6241984;23;20070;-75
2023/03/09 10:40:58;;;;;;;0.50;0.50;;;3.80;99.90;;;;;;6216262;23;20023;-75
2023/03/09 10:43:30;;;;;;;0.50;0.50;;;3.80;99.90;;;;;;6218095;23;20032;-75
2023/03/09 10:46:11;;;;;;;0.40;0.40;;;4.00;99.90;;;;;;6218192;23;20016;-75
2023/03/09 10:48:36;;;;;;;0.40;0.40;;;4.00;99.90;;;;;;6216207;23;20008;-75
2023/03/09 10:51:04;;;;;;;0.47;0.47;;;4.10;99.90;;;;;;6218206;23;20019;-75
2023/03/09 10:53:37;;;;;;;0.40;0.40;;;4.10;99.90;;;;;;6215972;23;20013;-76
2023/03/09 10:56:05;;;;;;;0.55;0.55;;;4.20;99.90;;;;;;6216060;23;20024;-75
2023/03/09 10:58:30;;;;;;;0.50;0.50;;;4.20;99.90;;;;;;6191101;23;20019;-75
2023/03/09 11:01:04;;;;;;;0.38;0.38;;;4.10;99.90;;;;;;6216157;23;20013;-74
2023/03/09 11:03:36;;;;;;;0.35;0.35;;;4.10;99.90;;;;;;6216206;23;20009;-75
2023/03/09 11:06:08;;;;;;;0.40;0.40;;;4.10;99.90;;;;;;6218120;23;20012;-75
2023/03/09 11:08:34;;;;;;;0.50;0.50;;;4.10;99.90;;;;;;6217755;23;20044;-75
2023/03/09 11:11:14;;;;;;;0.50;0.50;;;4.00;99.90;;;;;;6215857;23;20016;-75
2023/03/09 11:13:44;;;;;;;0.50;0.50;;;4.10;99.90;;;;;;6215925;23;20012;-74
2023/03/09 11:16:21;;;;;;;0.50;0.50;;;4.10;99.90;;;;;;6215929;23;20035;-75
2023/03/09 11:19:14;;;;;;;0.50;0.50;;;4.00;99.90;;;;;;6215984;23;20016;-75
2023/03/09 11:21:58;;;;;;;0.50;0.50;;;4.00;99.90;;;;;;6216911;23;20035;-74
2023/03/09 11:24:45;;;;;;;0.40;0.40;;;4.00;99.90;;;;;;6217563;23;20016;-74
2023/03/09 11:27:26;;;;;;;0.50;0.50;;;4.00;99.90;;;;;;6217279;23;20009;-74
2023/03/09 11:29:52;;;;;;;0.50;0.50;;;4.10;99.90;;;;;;6216060;23;20039;-74
2023/03/09 11:32:18;;;;;;;0.40;0.40;;;4.00;99.90;;;;;;6215930;23;20012;-74
2023/03/09 11:34:45;;;;;;;0.43;0.43;;;4.10;99.90;;;;;;6215989;23;20004;-74
2023/03/09 11:37:29;;;;;;;0.40;0.40;;;4.10;99.90;;;;;;6241687;23;20008;-73
2023/03/09 11:40:05;;;;;;;0.40;0.40;;;4.20;99.90;;;;;;6215893;23;20020;-74
2023/03/09 11:42:38;;;;;;;0.50;0.50;;;4.20;99.90;;;;;;6215701;23;20441;-75
2023/03/09 11:45:06;;;;;;;0.40;0.40;;;4.20;99.90;;;;;;6190662;23;20008;-74
2023/03/09 11:47:39;;;;;;;0.30;0.30;;;4.20;99.90;;;;;;6215029;23;20013;-74
2023/03/09 11:50:50;;;;;;;0.50;0.50;;;4.30;99.90;;;;;;6217777;23;20008;-74
2023/03/09 11:53:26;;;;;;;0.40;0.40;;;4.30;99.90;;;;;;6215315;23;20016;-74
2023/03/09 11:55:57;;;;;;;0.40;0.40;;;4.30;99.90;;;;;;6217415;23;20013;-74
2023/03/09 11:58:29;;;;;;;0.50;0.50;;;4.30;99.90;;;;;;6215518;23;20060;-73
2023/03/09 12:01:18;;;;;;;0.35;0.35;;;4.30;99.90;;;;;;6216112;23;20075;-73
2023/03/09 12:03:57;;;;;;;0.40;0.40;;;4.30;99.90;;;;;;6215458;23;20012;-74
2023/03/09 12:07:08;;;;;;;0.50;0.50;;;4.30;99.90;;;;;;6215493;23;20104;-74
2023/03/09 12:09:55;;;;;;;0.40;0.40;;;4.30;99.90;;;;;;6209336;23;20016;-74
2023/03/09 12:12:55;;;;;;;0.40;0.40;;;4.30;99.90;;;;;;6217278;23;20114;-74
2023/03/09 12:15:35;;;;;;;0.40;0.40;;;4.30;99.90;;;;;;6215211;23;20063;-78
2023/03/09 12:18:04;;;;;;;0.50;0.50;;;4.30;99.90;;;;;;6217301;23;20058;-75
2023/03/09 12:20:35;;;;;;;0.40;0.40;;;4.30;99.90;;;;;;6215904;23;20012;-74
2023/03/09 12:23:01;;;;;;;0.32;0.32;;;4.30;99.90;;;;;;6215325;23;20044;-75
2023/03/09 12:25:28;;;;;;;0.40;0.40;;;4.30;99.90;;;;;;6215276;23;20378;-74
2023/03/09 12:28:00;;;;;;;0.30;0.30;;;4.30;99.90;;;;;;6216987;23;20035;-75
2023/03/09 12:30:30;;;;;;;0.40;0.40;;;4.30;99.90;;;;;;6215310;23;20016;-74
2023/03/09 12:33:00;;;;;;;0.43;0.43;;;4.20;99.90;;;;;;6217149;23;20020;-75
2023/03/09 12:35:40;;;;;;;0.40;0.40;;;4.30;99.90;;;;;;6215314;23;20179;-75
2023/03/09 12:38:21;;;;;;;0.38;0.38;;;4.30;99.90;;;;;;6215173;23;20095;-74
2023/03/09 12:40:48;;;;;;;0.35;0.35;;;4.30;99.90;;;;;;6215086;23;20013;-74
2023/03/09 12:43:14;;;;;;;0.50;0.50;;;4.30;99.90;;;;;;6214951;23;20016;-75
2023/03/09 12:45:41;;;;;;;0.40;0.40;;;4.30;99.90;;;;;;6240730;23;20019;-74
2023/03/09 12:48:07;;;;;;;0.40;0.40;;;4.30;99.90;;;;;;6216821;23;20005;-74
2023/03/09 12:50:41;;;;;;;0.50;0.50;;;4.20;99.90;;;;;;6216650;23;20020;-74
2023/03/09 12:53:21;;;;;;;0.40;0.40;;;4.30;99.90;;;;;;6216521;23;20019;-74
2023/03/09 12:55:53;;;;;;;;;;;4.30;99.90;;;;;;6241207;23;20028;-74
2023/03/09 12:58:21;;;;;;;0.40;0.40;;;4.20;99.90;;;;;;6217505;23;19912;-74
2023/03/09 13:00:51;;;;;;;0.40;0.40;;;4.20;99.90;;;;;;6216906;23;20044;-74
2023/03/09 13:03:26;;;;;;;0.40;0.40;;;4.20;99.90;;;;;;6216643;23;20089;-74
2023/03/09 13:05:54;;;;;;;0.40;0.40;;;4.20;99.90;;;;;;6217063;23;20012;-74